Weather at Electro-Methods Inc Heliport

Public forecast

Using degrees Fahrenheit for public forecast. Weather courtesy of forecast.io.

Closest aviation weather report (METAR) to Electro-Methods Inc Heliport

Report is more than 6 hours old.

Closest report is Hartford Brainard Airport, 6.1 nm (11.3 km) SSW.

2022/11/14 14:53 (retrieved 2 years ago)

KHFD 141453Z 32009G20KT 10SM CLR 05/M07 A3029 RMK AO2 PK WND 32029/1425 SLP255 60000 T00501072 51019

Closest aviation forecast (TAF) to Electro-Methods Inc Heliport

Forecast is more than 12 hours old.

Closest forecast is Bradley International Airport, 7.5 nm (13.9 km) NNW.

2023/02/22 18:40 (retrieved 1 year ago)

TAF KBDL 221738Z 2218/2324 28005KT P6SM OVC100 FM222300 15003KT 5SM -SN BR OVC020 FM230300 10004KT 2SM -PL BR OVC003 FM230600 08005KT 4SM -RA BR OVC003 FM231200 03007KT 2SM -RA BR OVC003 FM231700 03007KT 5SM BR VCSH OVC010